ANZ158 YMML-YBBN
Flight info
| Callsign | ANZ158 |
|---|---|
| Flight time | 1h 55m |
| Altitude | 37000 |
| Route | NONIX4/27 NONIX H66 LAGOB H252 BN |
| Aircraft | A320/M-SDE3FGHIRWY/LB1 |
Departure
| Time | 2026-05-06 20:29 |
|---|---|
| Airport | Melbourne Airport (YMML) |
Arrival
| Time | 2026-05-06 22:25 |
|---|---|
| Airport | Brisbane International Airport (YBBN) |
| Time | Latitude | Longitude | Altitude | Speed | Heading |
|---|---|---|---|---|---|
| 2026-05-06 19:58 | -37.66950 | 144.84422 | 418 ft | 0 kts | 331° |
| 2026-05-06 20:15 | -37.66954 | 144.84425 | 418 ft | 4 kts | 330° |
| 2026-05-06 20:15 | -37.66976 | 144.84444 | 418 ft | 4 kts | 317° |
| 2026-05-06 20:15 | -37.66993 | 144.84470 | 418 ft | 4 kts | 295° |
| 2026-05-06 20:16 | -37.66998 | 144.84499 | 418 ft | 4 kts | 240° |
| 2026-05-06 20:16 | -37.66992 | 144.84509 | 418 ft | 1 kts | 227° |
| 2026-05-06 20:16 | -37.66992 | 144.84510 | 418 ft | 0 kts | 227° |
| 2026-05-06 20:22 | -37.66992 | 144.84509 | 418 ft | 0 kts | 227° |
| 2026-05-06 20:22 | -37.67002 | 144.84496 | 418 ft | 5 kts | 227° |
| 2026-05-06 20:23 | -37.67027 | 144.84460 | 418 ft | 6 kts | 230° |
| 2026-05-06 20:23 | -37.67048 | 144.84403 | 418 ft | 8 kts | 260° |
| 2026-05-06 20:23 | -37.67057 | 144.84325 | 418 ft | 10 kts | 262° |
| 2026-05-06 20:23 | -37.67068 | 144.84230 | 418 ft | 12 kts | 261° |
| 2026-05-06 20:24 | -37.67080 | 144.84131 | 418 ft | 8 kts | 262° |
| 2026-05-06 20:24 | -37.67069 | 144.84054 | 418 ft | 10 kts | 314° |
| 2026-05-06 20:24 | -37.67000 | 144.84023 | 418 ft | 12 kts | 349° |
| 2026-05-06 20:24 | -37.66912 | 144.84006 | 418 ft | 14 kts | 352° |
| 2026-05-06 20:25 | -37.66816 | 144.83989 | 418 ft | 12 kts | 351° |
| 2026-05-06 20:25 | -37.66747 | 144.83992 | 418 ft | 9 kts | 32° |
| 2026-05-06 20:25 | -37.66717 | 144.84069 | 418 ft | 11 kts | 79° |
| 2026-05-06 20:25 | -37.66686 | 144.84154 | 418 ft | 12 kts | 30° |
| 2026-05-06 20:26 | -37.66602 | 144.84174 | 418 ft | 13 kts | 19° |
| 2026-05-06 20:26 | -37.66536 | 144.84261 | 418 ft | 15 kts | 72° |
| 2026-05-06 20:26 | -37.66516 | 144.84402 | 418 ft | 17 kts | 81° |
| 2026-05-06 20:26 | -37.66497 | 144.84560 | 418 ft | 17 kts | 82° |
| 2026-05-06 20:27 | -37.66486 | 144.84656 | 418 ft | 11 kts | 81° |
| 2026-05-06 20:27 | -37.66454 | 144.84741 | 418 ft | 11 kts | 45° |
| 2026-05-06 20:27 | -37.66383 | 144.84781 | 418 ft | 13 kts | 4° |
| 2026-05-06 20:27 | -37.66333 | 144.84786 | 418 ft | 6 kts | 4° |
| 2026-05-06 20:28 | -37.66279 | 144.84773 | 418 ft | 11 kts | 335° |
| 2026-05-06 20:28 | -37.66226 | 144.84707 | 418 ft | 8 kts | 293° |
| 2026-05-06 20:28 | -37.66220 | 144.84670 | 418 ft | 0 kts | 275° |
| 2026-05-06 20:28 | -37.66217 | 144.84632 | 418 ft | 23 kts | 274° |
| 2026-05-06 20:29 | -37.66186 | 144.84095 | 418 ft | 98 kts | 274° |
| 2026-05-06 20:29 | -37.66122 | 144.82970 | 433 ft | 154 kts | 274° |
| 2026-05-06 20:29 | -37.66036 | 144.81530 | 801 ft | 173 kts | 274° |
| 2026-05-06 20:29 | -37.65937 | 144.79965 | 1444 ft | 179 kts | 274° |
| 2026-05-06 20:30 | -37.65832 | 144.78470 | 2321 ft | 164 kts | 274° |
| 2026-05-06 20:30 | -37.65629 | 144.75596 | 3339 ft | 179 kts | 268° |
| 2026-05-06 20:30 | -37.65551 | 144.73913 | 3612 ft | 204 kts | 268° |
| 2026-05-06 20:31 | -37.65454 | 144.72016 | 4037 ft | 223 kts | 269° |
| 2026-05-06 20:31 | -37.65341 | 144.70022 | 4545 ft | 238 kts | 269° |
| 2026-05-06 20:31 | -37.65150 | 144.67907 | 5265 ft | 247 kts | 277° |
| 2026-05-06 20:31 | -37.64403 | 144.65897 | 6054 ft | 264 kts | 301° |
| 2026-05-06 20:32 | -37.62890 | 144.64477 | 6824 ft | 283 kts | 330° |
| 2026-05-06 20:32 | -37.60960 | 144.63772 | 7592 ft | 292 kts | 341° |
| 2026-05-06 20:32 | -37.58997 | 144.63232 | 8324 ft | 295 kts | 341° |
| 2026-05-06 20:32 | -37.56964 | 144.62586 | 9058 ft | 297 kts | 340° |
| 2026-05-06 20:33 | -37.54876 | 144.62318 | 9742 ft | 310 kts | 1° |
| 2026-05-06 20:33 | -37.52799 | 144.63168 | 10383 ft | 322 kts | 29° |
| 2026-05-06 20:33 | -37.51113 | 144.65089 | 10820 ft | 335 kts | 55° |
| 2026-05-06 20:33 | -37.49888 | 144.67631 | 11246 ft | 346 kts | 62° |
| 2026-05-06 20:34 | -37.48680 | 144.70312 | 11631 ft | 358 kts | 60° |
| 2026-05-06 20:34 | -37.47258 | 144.72947 | 11990 ft | 370 kts | 50° |
| 2026-05-06 20:34 | -37.46124 | 144.74567 | 12289 ft | 375 kts | 46° |
| 2026-05-06 20:34 | -37.44291 | 144.76917 | 12846 ft | 379 kts | 43° |
| 2026-05-06 20:35 | -37.42400 | 144.79246 | 13395 ft | 382 kts | 43° |
| 2026-05-06 20:35 | -37.40504 | 144.81617 | 13937 ft | 386 kts | 44° |
| 2026-05-06 20:35 | -37.38625 | 144.84059 | 14475 ft | 390 kts | 45° |
| 2026-05-06 20:35 | -37.36752 | 144.86561 | 15012 ft | 394 kts | 45° |
| 2026-05-06 20:36 | -37.34870 | 144.89084 | 15533 ft | 397 kts | 45° |
| 2026-05-06 20:36 | -37.32962 | 144.91618 | 16039 ft | 401 kts | 45° |
| 2026-05-06 20:36 | -37.31026 | 144.94157 | 16507 ft | 405 kts | 44° |
| 2026-05-06 20:36 | -37.29045 | 144.96738 | 16775 ft | 416 kts | 44° |
| 2026-05-06 20:37 | -37.27009 | 144.99390 | 16954 ft | 428 kts | 44° |
| 2026-05-06 20:37 | -37.24922 | 145.02122 | 17124 ft | 439 kts | 44° |
| 2026-05-06 20:37 | -37.22794 | 145.04913 | 17452 ft | 445 kts | 44° |
| 2026-05-06 20:37 | -37.20645 | 145.07730 | 17869 ft | 448 kts | 44° |
| 2026-05-06 20:38 | -37.18481 | 145.10562 | 18261 ft | 451 kts | 44° |
| 2026-05-06 20:38 | -37.16297 | 145.13416 | 18669 ft | 454 kts | 44° |
| 2026-05-06 20:38 | -37.14099 | 145.16281 | 19062 ft | 457 kts | 43° |
| 2026-05-06 20:38 | -37.11885 | 145.19160 | 19453 ft | 460 kts | 43° |
| 2026-05-06 20:39 | -37.09689 | 145.22015 | 19822 ft | 463 kts | 43° |
| 2026-05-06 20:39 | -37.07414 | 145.24893 | 20186 ft | 465 kts | 39° |
| 2026-05-06 20:39 | -37.04972 | 145.27541 | 20570 ft | 466 kts | 36° |
| 2026-05-06 20:39 | -37.02470 | 145.30130 | 20919 ft | 468 kts | 35° |
| 2026-05-06 20:40 | -36.99932 | 145.32695 | 21279 ft | 470 kts | 34° |
| 2026-05-06 20:40 | -36.97379 | 145.35276 | 21626 ft | 473 kts | 34° |
| 2026-05-06 20:40 | -36.94833 | 145.37885 | 21974 ft | 475 kts | 34° |
| 2026-05-06 20:40 | -36.92279 | 145.40536 | 22294 ft | 478 kts | 34° |
| 2026-05-06 20:41 | -36.89715 | 145.43206 | 22629 ft | 480 kts | 34° |
| 2026-05-06 20:41 | -36.87140 | 145.45873 | 22951 ft | 482 kts | 34° |
| 2026-05-06 20:41 | -36.84543 | 145.48542 | 23271 ft | 484 kts | 33° |
| 2026-05-06 20:41 | -36.81932 | 145.51215 | 23583 ft | 486 kts | 33° |
| 2026-05-06 20:42 | -36.79311 | 145.53897 | 23888 ft | 488 kts | 33° |
| 2026-05-06 20:42 | -36.76680 | 145.56593 | 24186 ft | 490 kts | 33° |
| 2026-05-06 20:42 | -36.74038 | 145.59302 | 24483 ft | 492 kts | 32° |
| 2026-05-06 20:42 | -36.71391 | 145.62015 | 24777 ft | 494 kts | 32° |
| 2026-05-06 20:43 | -36.68730 | 145.64740 | 25047 ft | 496 kts | 32° |
| 2026-05-06 20:43 | -36.66054 | 145.67474 | 25326 ft | 498 kts | 32° |
| 2026-05-06 20:43 | -36.63371 | 145.70213 | 25605 ft | 500 kts | 32° |
| 2026-05-06 20:43 | -36.60677 | 145.72960 | 25887 ft | 501 kts | 31° |
| 2026-05-06 20:44 | -36.57974 | 145.75713 | 26136 ft | 503 kts | 31° |
| 2026-05-06 20:44 | -36.55258 | 145.78477 | 26392 ft | 505 kts | 31° |
| 2026-05-06 20:44 | -36.52533 | 145.81250 | 26647 ft | 507 kts | 31° |
| 2026-05-06 20:44 | -36.49800 | 145.84030 | 26898 ft | 508 kts | 31° |
| 2026-05-06 20:45 | -36.47060 | 145.86811 | 27132 ft | 510 kts | 31° |
| 2026-05-06 20:45 | -36.44303 | 145.89604 | 27349 ft | 512 kts | 31° |
| 2026-05-06 20:45 | -36.41539 | 145.92402 | 27566 ft | 513 kts | 31° |
| 2026-05-06 20:45 | -36.38771 | 145.95203 | 27782 ft | 514 kts | 30° |
| 2026-05-06 20:46 | -36.35989 | 145.98019 | 27976 ft | 516 kts | 30° |
| 2026-05-06 20:46 | -36.33200 | 146.00841 | 28149 ft | 518 kts | 30° |
| 2026-05-06 20:46 | -36.30409 | 146.03661 | 28373 ft | 517 kts | 30° |
| 2026-05-06 20:46 | -36.27621 | 146.06473 | 28592 ft | 517 kts | 30° |
| 2026-05-06 20:47 | -36.24832 | 146.09280 | 28773 ft | 517 kts | 30° |
| 2026-05-06 20:47 | -36.22038 | 146.12090 | 28973 ft | 517 kts | 30° |
| 2026-05-06 20:47 | -36.19247 | 146.14898 | 29188 ft | 517 kts | 30° |
| 2026-05-06 20:47 | -36.16461 | 146.17704 | 29428 ft | 516 kts | 30° |
| 2026-05-06 20:48 | -36.13697 | 146.20486 | 29937 ft | 508 kts | 30° |
| 2026-05-06 20:48 | -36.10971 | 146.23226 | 30437 ft | 503 kts | 30° |
| 2026-05-06 20:48 | -36.08283 | 146.25910 | 30625 ft | 505 kts | 30° |
| 2026-05-06 20:48 | -36.05540 | 146.28636 | 30820 ft | 506 kts | 30° |
| 2026-05-06 20:49 | -36.02803 | 146.31366 | 31155 ft | 505 kts | 30° |
| 2026-05-06 20:49 | -36.00076 | 146.34097 | 31403 ft | 505 kts | 30° |
| 2026-05-06 20:49 | -35.97350 | 146.36826 | 31689 ft | 504 kts | 30° |
| 2026-05-06 20:49 | -35.94625 | 146.39547 | 31962 ft | 503 kts | 30° |
| 2026-05-06 20:50 | -35.91903 | 146.42258 | 32221 ft | 503 kts | 30° |
| 2026-05-06 20:50 | -35.89179 | 146.44965 | 32481 ft | 503 kts | 30° |
| 2026-05-06 20:50 | -35.86452 | 146.47676 | 32740 ft | 502 kts | 30° |
| 2026-05-06 20:50 | -35.83734 | 146.50376 | 33005 ft | 501 kts | 30° |
| 2026-05-06 20:51 | -35.81026 | 146.53066 | 33294 ft | 500 kts | 30° |
| 2026-05-06 20:51 | -35.78319 | 146.55752 | 33519 ft | 500 kts | 30° |
| 2026-05-06 20:51 | -35.75613 | 146.58434 | 33751 ft | 499 kts | 30° |
| 2026-05-06 20:51 | -35.72915 | 146.61104 | 34033 ft | 497 kts | 30° |
| 2026-05-06 20:52 | -35.70216 | 146.63774 | 34244 ft | 497 kts | 30° |
| 2026-05-06 20:52 | -35.67525 | 146.66434 | 34498 ft | 496 kts | 30° |
| 2026-05-06 20:52 | -35.64837 | 146.69092 | 34713 ft | 495 kts | 30° |
| 2026-05-06 20:52 | -35.62149 | 146.71742 | 34906 ft | 495 kts | 30° |
| 2026-05-06 20:53 | -35.59468 | 146.74385 | 35111 ft | 495 kts | 30° |
| 2026-05-06 20:53 | -35.56779 | 146.77030 | 35266 ft | 495 kts | 30° |
| 2026-05-06 20:53 | -35.54096 | 146.79665 | 35429 ft | 495 kts | 30° |
| 2026-05-06 20:53 | -35.51411 | 146.82306 | 35648 ft | 493 kts | 30° |
| 2026-05-06 20:54 | -35.48735 | 146.84938 | 35798 ft | 493 kts | 30° |
| 2026-05-06 20:54 | -35.46060 | 146.87566 | 35945 ft | 493 kts | 30° |
| 2026-05-06 20:54 | -35.43383 | 146.90192 | 36108 ft | 492 kts | 30° |
| 2026-05-06 20:54 | -35.40704 | 146.92814 | 36252 ft | 492 kts | 30° |
| 2026-05-06 20:55 | -35.38034 | 146.95424 | 36454 ft | 490 kts | 30° |
| 2026-05-06 20:55 | -35.35362 | 146.98037 | 36600 ft | 490 kts | 30° |
| 2026-05-06 20:55 | -35.32730 | 147.00609 | 36730 ft | 491 kts | 30° |
| 2026-05-06 20:55 | -35.30065 | 147.03211 | 36875 ft | 490 kts | 30° |
| 2026-05-06 20:56 | -35.27397 | 147.05811 | 37001 ft | 490 kts | 30° |
| 2026-05-06 20:56 | -35.24729 | 147.08409 | 37118 ft | 490 kts | 30° |
| 2026-05-06 20:56 | -35.22054 | 147.11013 | 37140 ft | 492 kts | 30° |
| 2026-05-06 20:57 | -35.16703 | 147.16215 | 37142 ft | 491 kts | 29° |
| 2026-05-06 20:57 | -35.11355 | 147.21405 | 37148 ft | 490 kts | 29° |
| 2026-05-06 20:58 | -35.06012 | 147.26580 | 37151 ft | 490 kts | 29° |
| 2026-05-06 20:58 | -35.00634 | 147.31782 | 37165 ft | 489 kts | 29° |
| 2026-05-06 20:59 | -34.95310 | 147.36929 | 37175 ft | 487 kts | 29° |
| 2026-05-06 20:59 | -34.90029 | 147.42015 | 37135 ft | 487 kts | 29° |
| 2026-05-06 21:00 | -34.84712 | 147.47126 | 37096 ft | 487 kts | 28° |
| 2026-05-06 21:00 | -34.79396 | 147.52234 | 37092 ft | 487 kts | 28° |
| 2026-05-06 21:01 | -34.74078 | 147.57337 | 37116 ft | 487 kts | 28° |
| 2026-05-06 21:01 | -34.68759 | 147.62429 | 37153 ft | 486 kts | 28° |
| 2026-05-06 21:02 | -34.63453 | 147.67506 | 37166 ft | 486 kts | 28° |
| 2026-05-06 21:02 | -34.58142 | 147.72568 | 37167 ft | 485 kts | 28° |
| 2026-05-06 21:03 | -34.52840 | 147.77616 | 37163 ft | 484 kts | 28° |
| 2026-05-06 21:03 | -34.47553 | 147.82648 | 37159 ft | 483 kts | 28° |
| 2026-05-06 21:04 | -34.42274 | 147.87658 | 37133 ft | 482 kts | 28° |
| 2026-05-06 21:04 | -34.36997 | 147.92658 | 37092 ft | 481 kts | 28° |
| 2026-05-06 21:05 | -34.31718 | 147.97654 | 37061 ft | 481 kts | 28° |
| 2026-05-06 21:05 | -34.26448 | 148.02633 | 37069 ft | 481 kts | 27° |
| 2026-05-06 21:06 | -34.21175 | 148.07603 | 37074 ft | 481 kts | 27° |
| 2026-05-06 21:06 | -34.15902 | 148.12571 | 37087 ft | 481 kts | 27° |
| 2026-05-06 21:07 | -34.10628 | 148.17531 | 37101 ft | 481 kts | 27° |
| 2026-05-06 21:07 | -34.05347 | 148.22484 | 37122 ft | 480 kts | 27° |
| 2026-05-06 21:08 | -34.00067 | 148.27433 | 37147 ft | 481 kts | 27° |
| 2026-05-06 21:08 | -33.94785 | 148.32373 | 37149 ft | 481 kts | 27° |
| 2026-05-06 21:09 | -33.89530 | 148.37282 | 37149 ft | 481 kts | 27° |
| 2026-05-06 21:09 | -33.84244 | 148.42214 | 37149 ft | 480 kts | 27° |
| 2026-05-06 21:10 | -33.78963 | 148.47128 | 37137 ft | 480 kts | 27° |
| 2026-05-06 21:10 | -33.73684 | 148.52036 | 37124 ft | 480 kts | 27° |
| 2026-05-06 21:11 | -33.68401 | 148.56940 | 37126 ft | 480 kts | 27° |
| 2026-05-06 21:11 | -33.63120 | 148.61831 | 37142 ft | 480 kts | 27° |
| 2026-05-06 21:12 | -33.57840 | 148.66716 | 37158 ft | 479 kts | 27° |
| 2026-05-06 21:12 | -33.52553 | 148.71600 | 37162 ft | 480 kts | 27° |
| 2026-05-06 21:13 | -33.47265 | 148.76477 | 37164 ft | 480 kts | 27° |
| 2026-05-06 21:13 | -33.41977 | 148.81345 | 37165 ft | 479 kts | 27° |
| 2026-05-06 21:14 | -33.36690 | 148.86202 | 37165 ft | 479 kts | 27° |
| 2026-05-06 21:14 | -33.31405 | 148.91055 | 37159 ft | 479 kts | 27° |
| 2026-05-06 21:15 | -33.26117 | 148.95903 | 37154 ft | 479 kts | 27° |
| 2026-05-06 21:15 | -33.20828 | 149.00740 | 37156 ft | 479 kts | 27° |
| 2026-05-06 21:16 | -33.15572 | 149.05540 | 37164 ft | 479 kts | 27° |
| 2026-05-06 21:16 | -33.10280 | 149.10366 | 37162 ft | 479 kts | 27° |
| 2026-05-06 21:17 | -33.04980 | 149.15193 | 37162 ft | 479 kts | 27° |
| 2026-05-06 21:17 | -32.99687 | 149.20009 | 37160 ft | 479 kts | 27° |
| 2026-05-06 21:18 | -32.94391 | 149.24820 | 37159 ft | 478 kts | 27° |
| 2026-05-06 21:18 | -32.89096 | 149.29617 | 37146 ft | 478 kts | 27° |
| 2026-05-06 21:19 | -32.84694 | 149.33597 | 37140 ft | 478 kts | 27° |
| 2026-05-06 21:19 | -32.79397 | 149.38387 | 37147 ft | 478 kts | 27° |
| 2026-05-06 21:20 | -32.74103 | 149.43168 | 37155 ft | 478 kts | 27° |
| 2026-05-06 21:20 | -32.68803 | 149.47942 | 37158 ft | 478 kts | 27° |
| 2026-05-06 21:21 | -32.63501 | 149.52711 | 37159 ft | 478 kts | 27° |
| 2026-05-06 21:21 | -32.58194 | 149.57482 | 37159 ft | 478 kts | 27° |
| 2026-05-06 21:22 | -32.52842 | 149.62131 | 37154 ft | 476 kts | 25° |
| 2026-05-06 21:22 | -32.47444 | 149.66658 | 37157 ft | 475 kts | 25° |
| 2026-05-06 21:23 | -32.42048 | 149.71190 | 37159 ft | 476 kts | 26° |
| 2026-05-06 21:23 | -32.36655 | 149.75736 | 37158 ft | 476 kts | 25° |
| 2026-05-06 21:24 | -32.31293 | 149.80232 | 37159 ft | 476 kts | 26° |
| 2026-05-06 21:24 | -32.25859 | 149.84781 | 37161 ft | 475 kts | 26° |
| 2026-05-06 21:25 | -32.20496 | 149.89268 | 37152 ft | 476 kts | 26° |
| 2026-05-06 21:25 | -32.15098 | 149.93779 | 37152 ft | 475 kts | 25° |
| 2026-05-06 21:26 | -32.09700 | 149.98283 | 37152 ft | 475 kts | 25° |
| 2026-05-06 21:26 | -32.04297 | 150.02779 | 37155 ft | 475 kts | 25° |
| 2026-05-06 21:27 | -31.98896 | 150.07271 | 37157 ft | 475 kts | 25° |
| 2026-05-06 21:27 | -31.93492 | 150.11762 | 37158 ft | 475 kts | 25° |
| 2026-05-06 21:28 | -31.88085 | 150.16246 | 37159 ft | 475 kts | 25° |
| 2026-05-06 21:28 | -31.82677 | 150.20721 | 37158 ft | 475 kts | 25° |
| 2026-05-06 21:29 | -31.77264 | 150.25196 | 37160 ft | 475 kts | 25° |
| 2026-05-06 21:29 | -31.71849 | 150.29666 | 37163 ft | 475 kts | 25° |
| 2026-05-06 21:30 | -31.66432 | 150.34132 | 37166 ft | 475 kts | 25° |
| 2026-05-06 21:30 | -31.61018 | 150.38588 | 37164 ft | 476 kts | 25° |
| 2026-05-06 21:31 | -31.55598 | 150.43042 | 37166 ft | 476 kts | 25° |
| 2026-05-06 21:31 | -31.50174 | 150.47495 | 37171 ft | 476 kts | 25° |
| 2026-05-06 21:32 | -31.44749 | 150.51942 | 37173 ft | 476 kts | 25° |
| 2026-05-06 21:32 | -31.36605 | 150.58602 | 37178 ft | 476 kts | 25° |
| 2026-05-06 21:33 | -31.31169 | 150.63040 | 37195 ft | 475 kts | 24° |
| 2026-05-06 21:33 | -31.25749 | 150.67461 | 37165 ft | 475 kts | 24° |
| 2026-05-06 21:34 | -31.20363 | 150.71846 | 37144 ft | 474 kts | 24° |
| 2026-05-06 21:34 | -31.14949 | 150.76251 | 37095 ft | 474 kts | 24° |
| 2026-05-06 21:35 | -31.09532 | 150.80649 | 37102 ft | 474 kts | 24° |
| 2026-05-06 21:35 | -31.04257 | 150.85381 | 37105 ft | 485 kts | 31° |
| 2026-05-06 21:36 | -30.99223 | 150.90672 | 37107 ft | 489 kts | 32° |
| 2026-05-06 21:36 | -30.94189 | 150.96010 | 37105 ft | 490 kts | 31° |
| 2026-05-06 21:37 | -30.89100 | 151.01267 | 37165 ft | 488 kts | 31° |
| 2026-05-06 21:37 | -30.84012 | 151.06515 | 37185 ft | 489 kts | 31° |
| 2026-05-06 21:38 | -30.78936 | 151.11791 | 37183 ft | 489 kts | 31° |
| 2026-05-06 21:38 | -30.73866 | 151.17050 | 37167 ft | 488 kts | 31° |
| 2026-05-06 21:39 | -30.68784 | 151.22293 | 37130 ft | 488 kts | 31° |
| 2026-05-06 21:39 | -30.63702 | 151.27528 | 37123 ft | 488 kts | 30° |
| 2026-05-06 21:40 | -30.58618 | 151.32766 | 37099 ft | 489 kts | 30° |
| 2026-05-06 21:40 | -30.53521 | 151.38015 | 37111 ft | 490 kts | 30° |
| 2026-05-06 21:41 | -30.48410 | 151.43256 | 37101 ft | 492 kts | 30° |
| 2026-05-06 21:41 | -30.43321 | 151.48478 | 37105 ft | 492 kts | 30° |
| 2026-05-06 21:42 | -30.38187 | 151.53740 | 37137 ft | 492 kts | 30° |
| 2026-05-06 21:42 | -30.33055 | 151.58986 | 37195 ft | 492 kts | 30° |
| 2026-05-06 21:43 | -30.27918 | 151.64231 | 37171 ft | 492 kts | 29° |
| 2026-05-06 21:43 | -30.22779 | 151.69471 | 37143 ft | 493 kts | 29° |
| 2026-05-06 21:44 | -30.17635 | 151.74707 | 37121 ft | 492 kts | 29° |
| 2026-05-06 21:44 | -30.12492 | 151.79935 | 37115 ft | 492 kts | 29° |
| 2026-05-06 21:45 | -30.07342 | 151.85158 | 37095 ft | 492 kts | 29° |
| 2026-05-06 21:45 | -30.02191 | 151.90379 | 37099 ft | 493 kts | 29° |
| 2026-05-06 21:46 | -29.97030 | 151.95604 | 37117 ft | 493 kts | 29° |
| 2026-05-06 21:46 | -29.91869 | 152.00820 | 37139 ft | 493 kts | 29° |
| 2026-05-06 21:47 | -29.86711 | 152.06031 | 37178 ft | 492 kts | 29° |
| 2026-05-06 21:47 | -29.81588 | 152.11200 | 37165 ft | 493 kts | 28° |
| 2026-05-06 21:48 | -29.79016 | 152.13786 | 36956 ft | 489 kts | 28° |
| 2026-05-06 21:48 | -29.76432 | 152.16385 | 36490 ft | 486 kts | 29° |
| 2026-05-06 21:48 | -29.73906 | 152.18928 | 36208 ft | 480 kts | 29° |
| 2026-05-06 21:48 | -29.71391 | 152.21454 | 35969 ft | 480 kts | 29° |
| 2026-05-06 21:49 | -29.68873 | 152.23975 | 35724 ft | 480 kts | 29° |
| 2026-05-06 21:49 | -29.66351 | 152.26500 | 35478 ft | 480 kts | 30° |
| 2026-05-06 21:49 | -29.63836 | 152.29020 | 35232 ft | 480 kts | 30° |
| 2026-05-06 21:49 | -29.61315 | 152.31548 | 34987 ft | 481 kts | 30° |
| 2026-05-06 21:50 | -29.58801 | 152.34074 | 34741 ft | 481 kts | 30° |
| 2026-05-06 21:50 | -29.56276 | 152.36604 | 34495 ft | 481 kts | 30° |
| 2026-05-06 21:50 | -29.53752 | 152.39123 | 34249 ft | 481 kts | 30° |
| 2026-05-06 21:50 | -29.51227 | 152.41641 | 34001 ft | 480 kts | 30° |
| 2026-05-06 21:51 | -29.48712 | 152.44150 | 33755 ft | 478 kts | 30° |
| 2026-05-06 21:51 | -29.46211 | 152.46647 | 33508 ft | 476 kts | 30° |
| 2026-05-06 21:51 | -29.43721 | 152.49132 | 33262 ft | 474 kts | 30° |
| 2026-05-06 21:51 | -29.41239 | 152.51607 | 33016 ft | 472 kts | 31° |
| 2026-05-06 21:52 | -29.38769 | 152.54068 | 32770 ft | 470 kts | 31° |
| 2026-05-06 21:52 | -29.36308 | 152.56519 | 32523 ft | 467 kts | 31° |
| 2026-05-06 21:52 | -29.33856 | 152.58955 | 32277 ft | 465 kts | 31° |
| 2026-05-06 21:52 | -29.31417 | 152.61378 | 32030 ft | 463 kts | 31° |
| 2026-05-06 21:53 | -29.28983 | 152.63794 | 31783 ft | 461 kts | 31° |
| 2026-05-06 21:53 | -29.26565 | 152.66192 | 31537 ft | 459 kts | 31° |
| 2026-05-06 21:53 | -29.24186 | 152.68556 | 31293 ft | 457 kts | 31° |
| 2026-05-06 21:53 | -29.21786 | 152.70938 | 31046 ft | 455 kts | 31° |
| 2026-05-06 21:54 | -29.19396 | 152.73304 | 30799 ft | 453 kts | 31° |
| 2026-05-06 21:54 | -29.17021 | 152.75653 | 30551 ft | 450 kts | 31° |
| 2026-05-06 21:54 | -29.14657 | 152.77991 | 30306 ft | 448 kts | 31° |
| 2026-05-06 21:54 | -29.12300 | 152.80320 | 30059 ft | 447 kts | 31° |
| 2026-05-06 21:55 | -29.09953 | 152.82639 | 29812 ft | 445 kts | 32° |
| 2026-05-06 21:55 | -29.07613 | 152.84949 | 29565 ft | 443 kts | 31° |
| 2026-05-06 21:55 | -29.05282 | 152.87249 | 29317 ft | 442 kts | 32° |
| 2026-05-06 21:55 | -29.02961 | 152.89539 | 29069 ft | 439 kts | 32° |
| 2026-05-06 21:56 | -29.00655 | 152.91814 | 28823 ft | 437 kts | 32° |
| 2026-05-06 21:56 | -28.98355 | 152.94079 | 28576 ft | 436 kts | 32° |
| 2026-05-06 21:56 | -28.96063 | 152.96332 | 28329 ft | 434 kts | 32° |
| 2026-05-06 21:56 | -28.93780 | 152.98576 | 28082 ft | 432 kts | 32° |
| 2026-05-06 21:57 | -28.91510 | 153.00811 | 27834 ft | 430 kts | 32° |
| 2026-05-06 21:57 | -28.89231 | 153.03008 | 27579 ft | 425 kts | 28° |
| 2026-05-06 21:57 | -28.86780 | 153.04761 | 27325 ft | 409 kts | 16° |
| 2026-05-06 21:57 | -28.84157 | 153.05822 | 27087 ft | 394 kts | 5° |
| 2026-05-06 21:58 | -28.81501 | 153.06503 | 26845 ft | 389 kts | 2° |
| 2026-05-06 21:58 | -28.78849 | 153.07090 | 26597 ft | 387 kts | 1° |
| 2026-05-06 21:58 | -28.76214 | 153.07682 | 26349 ft | 386 kts | 2° |
| 2026-05-06 21:58 | -28.73586 | 153.08327 | 26101 ft | 386 kts | 4° |
| 2026-05-06 21:59 | -28.71004 | 153.09009 | 25856 ft | 385 kts | 4° |
| 2026-05-06 21:59 | -28.68366 | 153.09722 | 25606 ft | 384 kts | 4° |
| 2026-05-06 21:59 | -28.65767 | 153.10412 | 25358 ft | 383 kts | 4° |
| 2026-05-06 21:59 | -28.63172 | 153.11082 | 25110 ft | 382 kts | 4° |
| 2026-05-06 22:00 | -28.60626 | 153.11731 | 24866 ft | 379 kts | 4° |
| 2026-05-06 22:00 | -28.58055 | 153.12387 | 24618 ft | 378 kts | 4° |
| 2026-05-06 22:00 | -28.55489 | 153.13047 | 24370 ft | 377 kts | 4° |
| 2026-05-06 22:00 | -28.52936 | 153.13707 | 24122 ft | 375 kts | 4° |
| 2026-05-06 22:01 | -28.50392 | 153.14365 | 23874 ft | 374 kts | 4° |
| 2026-05-06 22:01 | -28.47862 | 153.15016 | 23611 ft | 373 kts | 4° |
| 2026-05-06 22:01 | -28.45339 | 153.15663 | 23259 ft | 371 kts | 5° |
| 2026-05-06 22:01 | -28.42832 | 153.16306 | 22855 ft | 368 kts | 5° |
| 2026-05-06 22:02 | -28.40342 | 153.16946 | 22429 ft | 365 kts | 5° |
| 2026-05-06 22:02 | -28.37869 | 153.17582 | 21977 ft | 364 kts | 5° |
| 2026-05-06 22:02 | -28.36234 | 153.18001 | 21693 ft | 363 kts | 5° |
| 2026-05-06 22:02 | -28.32954 | 153.18842 | 21122 ft | 360 kts | 5° |
| 2026-05-06 22:03 | -28.31303 | 153.19265 | 20833 ft | 359 kts | 6° |
| 2026-05-06 22:03 | -28.28873 | 153.19888 | 20409 ft | 357 kts | 6° |
| 2026-05-06 22:03 | -28.26496 | 153.20499 | 20022 ft | 353 kts | 6° |
| 2026-05-06 22:03 | -28.24100 | 153.21112 | 19352 ft | 355 kts | 6° |
| 2026-05-06 22:04 | -28.21637 | 153.21732 | 18102 ft | 370 kts | 7° |
| 2026-05-06 22:04 | -28.19059 | 153.22314 | 16608 ft | 385 kts | 5° |
| 2026-05-06 22:04 | -28.16375 | 153.22801 | 15247 ft | 395 kts | 4° |
| 2026-05-06 22:04 | -28.13651 | 153.23268 | 14219 ft | 394 kts | 5° |
| 2026-05-06 22:05 | -28.10970 | 153.23726 | 13537 ft | 384 kts | 5° |
| 2026-05-06 22:05 | -28.08377 | 153.24175 | 13117 ft | 368 kts | 5° |
| 2026-05-06 22:05 | -28.05911 | 153.24608 | 12831 ft | 350 kts | 5° |
| 2026-05-06 22:05 | -28.03557 | 153.25021 | 12559 ft | 334 kts | 5° |
| 2026-05-06 22:06 | -28.01311 | 153.25412 | 12292 ft | 320 kts | 5° |
| 2026-05-06 22:06 | -27.99137 | 153.25786 | 11857 ft | 314 kts | 5° |
| 2026-05-06 22:06 | -27.96980 | 153.26154 | 11381 ft | 314 kts | 6° |
| 2026-05-06 22:06 | -27.94818 | 153.26526 | 10921 ft | 314 kts | 6° |
| 2026-05-06 22:07 | -27.92659 | 153.26900 | 10468 ft | 313 kts | 6° |
| 2026-05-06 22:07 | -27.90507 | 153.27272 | 10038 ft | 313 kts | 6° |
| 2026-05-06 22:07 | -27.88380 | 153.27640 | 9837 ft | 304 kts | 7° |
| 2026-05-06 22:07 | -27.86330 | 153.27997 | 9721 ft | 293 kts | 6° |
| 2026-05-06 22:08 | -27.84347 | 153.28340 | 9525 ft | 285 kts | 6° |
| 2026-05-06 22:08 | -27.82393 | 153.28675 | 9196 ft | 283 kts | 7° |
| 2026-05-06 22:08 | -27.80445 | 153.29010 | 8839 ft | 283 kts | 7° |
| 2026-05-06 22:08 | -27.78502 | 153.29345 | 8489 ft | 282 kts | 7° |
| 2026-05-06 22:09 | -27.76570 | 153.29678 | 8151 ft | 280 kts | 7° |
| 2026-05-06 22:09 | -27.74644 | 153.30011 | 7817 ft | 279 kts | 7° |
| 2026-05-06 22:09 | -27.72733 | 153.30341 | 7485 ft | 278 kts | 7° |
| 2026-05-06 22:09 | -27.70825 | 153.30669 | 7154 ft | 276 kts | 7° |
| 2026-05-06 22:10 | -27.69003 | 153.30982 | 6836 ft | 275 kts | 7° |
| 2026-05-06 22:10 | -27.67118 | 153.31309 | 6508 ft | 273 kts | 7° |
| 2026-05-06 22:10 | -27.65243 | 153.31632 | 6178 ft | 272 kts | 7° |
| 2026-05-06 22:10 | -27.63396 | 153.31882 | 5856 ft | 270 kts | 3° |
| 2026-05-06 22:11 | -27.61505 | 153.31995 | 5613 ft | 265 kts | 1° |
| 2026-05-06 22:11 | -27.59695 | 153.32044 | 5512 ft | 255 kts | 0° |
| 2026-05-06 22:11 | -27.57981 | 153.32104 | 5421 ft | 245 kts | 1° |
| 2026-05-06 22:11 | -27.56313 | 153.32195 | 5334 ft | 235 kts | 2° |
| 2026-05-06 22:12 | -27.54719 | 153.32285 | 5252 ft | 225 kts | 1° |
| 2026-05-06 22:12 | -27.53191 | 153.32358 | 5149 ft | 216 kts | 1° |
| 2026-05-06 22:12 | -27.51709 | 153.32422 | 4976 ft | 209 kts | 1° |
| 2026-05-06 22:12 | -27.50268 | 153.32491 | 4658 ft | 208 kts | 1° |
| 2026-05-06 22:13 | -27.48826 | 153.32563 | 4383 ft | 204 kts | 2° |
| 2026-05-06 22:13 | -27.47428 | 153.32629 | 4144 ft | 199 kts | 2° |
| 2026-05-06 22:13 | -27.46049 | 153.32696 | 3839 ft | 198 kts | 2° |
| 2026-05-06 22:13 | -27.44674 | 153.32763 | 3532 ft | 197 kts | 2° |
| 2026-05-06 22:14 | -27.43304 | 153.32829 | 3224 ft | 197 kts | 2° |
| 2026-05-06 22:14 | -27.41941 | 153.32894 | 2996 ft | 195 kts | 2° |
| 2026-05-06 22:14 | -27.40579 | 153.32960 | 2992 ft | 196 kts | 2° |
| 2026-05-06 22:14 | -27.39216 | 153.33025 | 2993 ft | 196 kts | 2° |
| 2026-05-06 22:15 | -27.37853 | 153.33091 | 2993 ft | 196 kts | 2° |
| 2026-05-06 22:15 | -27.36489 | 153.33156 | 2993 ft | 196 kts | 2° |
| 2026-05-06 22:15 | -27.35126 | 153.33119 | 2991 ft | 196 kts | 354° |
| 2026-05-06 22:15 | -27.33798 | 153.32870 | 2991 ft | 196 kts | 349° |
| 2026-05-06 22:16 | -27.32458 | 153.32573 | 2990 ft | 196 kts | 349° |
| 2026-05-06 22:16 | -27.31159 | 153.32317 | 2993 ft | 182 kts | 351° |
| 2026-05-06 22:16 | -27.29938 | 153.32096 | 2991 ft | 175 kts | 351° |
| 2026-05-06 22:16 | -27.28736 | 153.31869 | 2992 ft | 175 kts | 350° |
| 2026-05-06 22:17 | -27.27543 | 153.31590 | 2987 ft | 175 kts | 341° |
| 2026-05-06 22:17 | -27.26521 | 153.30873 | 2986 ft | 169 kts | 319° |
| 2026-05-06 22:17 | -27.25681 | 153.30026 | 2986 ft | 156 kts | 318° |
| 2026-05-06 22:17 | -27.24865 | 153.29239 | 2993 ft | 154 kts | 320° |
| 2026-05-06 22:18 | -27.24037 | 153.28477 | 2992 ft | 154 kts | 320° |
| 2026-05-06 22:18 | -27.23208 | 153.27712 | 2992 ft | 154 kts | 320° |
| 2026-05-06 22:18 | -27.22383 | 153.26945 | 2991 ft | 154 kts | 320° |
| 2026-05-06 22:18 | -27.21554 | 153.26181 | 2989 ft | 154 kts | 320° |
| 2026-05-06 22:19 | -27.20735 | 153.25407 | 2988 ft | 154 kts | 316° |
| 2026-05-06 22:19 | -27.20204 | 153.24387 | 2970 ft | 154 kts | 277° |
| 2026-05-06 22:19 | -27.20500 | 153.23274 | 2975 ft | 154 kts | 227° |
| 2026-05-06 22:19 | -27.21361 | 153.22619 | 2997 ft | 148 kts | 207° |
| 2026-05-06 22:20 | -27.22276 | 153.22100 | 2999 ft | 147 kts | 206° |
| 2026-05-06 22:20 | -27.23190 | 153.21586 | 3032 ft | 148 kts | 206° |
| 2026-05-06 22:20 | -27.24105 | 153.21061 | 2898 ft | 147 kts | 207° |
| 2026-05-06 22:20 | -27.25013 | 153.20540 | 2730 ft | 146 kts | 207° |
| 2026-05-06 22:21 | -27.25917 | 153.20027 | 2539 ft | 144 kts | 206° |
| 2026-05-06 22:21 | -27.26810 | 153.19518 | 2354 ft | 144 kts | 207° |
| 2026-05-06 22:21 | -27.27701 | 153.19008 | 2164 ft | 143 kts | 207° |
| 2026-05-06 22:21 | -27.28585 | 153.18504 | 1975 ft | 142 kts | 207° |
| 2026-05-06 22:22 | -27.29464 | 153.18002 | 1787 ft | 142 kts | 207° |
| 2026-05-06 22:22 | -27.30337 | 153.17504 | 1600 ft | 140 kts | 207° |
| 2026-05-06 22:22 | -27.31203 | 153.17010 | 1416 ft | 138 kts | 207° |
| 2026-05-06 22:22 | -27.32036 | 153.16533 | 1233 ft | 136 kts | 207° |
| 2026-05-06 22:23 | -27.32876 | 153.16054 | 1055 ft | 135 kts | 207° |
| 2026-05-06 22:23 | -27.33713 | 153.15576 | 875 ft | 135 kts | 207° |
| 2026-05-06 22:23 | -27.34547 | 153.15099 | 697 ft | 134 kts | 207° |
| 2026-05-06 22:23 | -27.35380 | 153.14624 | 519 ft | 134 kts | 207° |
| 2026-05-06 22:24 | -27.36207 | 153.14150 | 342 ft | 133 kts | 207° |
| 2026-05-06 22:24 | -27.37035 | 153.13677 | 166 ft | 133 kts | 207° |
| 2026-05-06 22:24 | -27.37843 | 153.13217 | 27 ft | 120 kts | 207° |
| 2026-05-06 22:24 | -27.38410 | 153.12891 | 27 ft | 66 kts | 207° |
| 2026-05-06 22:25 | -27.38738 | 153.12703 | 27 ft | 38 kts | 209° |
| 2026-05-06 22:25 | -27.38888 | 153.12597 | 27 ft | 23 kts | 218° |
| 2026-05-06 22:25 | -27.38970 | 153.12511 | 27 ft | 12 kts | 228° |
| 2026-05-06 22:25 | -27.39015 | 153.12446 | 27 ft | 11 kts | 233° |
| 2026-05-06 22:26 | -27.39060 | 153.12369 | 27 ft | 12 kts | 237° |
| 2026-05-06 22:26 | -27.39110 | 153.12285 | 27 ft | 13 kts | 233° |
| 2026-05-06 22:26 | -27.39189 | 153.12218 | 27 ft | 16 kts | 209° |
| 2026-05-06 22:26 | -27.39291 | 153.12157 | 27 ft | 18 kts | 206° |
| 2026-05-06 22:27 | -27.39405 | 153.12094 | 27 ft | 17 kts | 208° |
| 2026-05-06 22:27 | -27.39491 | 153.12046 | 27 ft | 11 kts | 207° |
| 2026-05-06 22:27 | -27.39516 | 153.11980 | 27 ft | 9 kts | 290° |
| 2026-05-06 22:27 | -27.39516 | 153.11902 | 27 ft | 11 kts | 233° |
| 2026-05-06 22:28 | -27.39588 | 153.11853 | 27 ft | 13 kts | 207° |
| 2026-05-06 22:28 | -27.39677 | 153.11801 | 27 ft | 16 kts | 207° |
| 2026-05-06 22:28 | -27.39768 | 153.11749 | 27 ft | 13 kts | 207° |
| 2026-05-06 22:28 | -27.39832 | 153.11713 | 27 ft | 10 kts | 207° |
| 2026-05-06 22:29 | -27.39869 | 153.11662 | 27 ft | 8 kts | 277° |
| 2026-05-06 22:29 | -27.39868 | 153.11592 | 27 ft | 10 kts | 237° |
| 2026-05-06 22:29 | -27.39932 | 153.11544 | 27 ft | 12 kts | 207° |
| 2026-05-06 22:29 | -27.40015 | 153.11497 | 27 ft | 14 kts | 207° |
| 2026-05-06 22:30 | -27.40095 | 153.11451 | 27 ft | 12 kts | 207° |
| 2026-05-06 22:30 | -27.40154 | 153.11414 | 27 ft | 10 kts | 221° |
| 2026-05-06 22:30 | -27.40192 | 153.11347 | 27 ft | 9 kts | 242° |
| 2026-05-06 22:30 | -27.40245 | 153.11296 | 27 ft | 11 kts | 210° |
| 2026-05-06 22:31 | -27.40314 | 153.11251 | 27 ft | 11 kts | 207° |
| 2026-05-06 22:31 | -27.40386 | 153.11209 | 27 ft | 11 kts | 207° |
| 2026-05-06 22:31 | -27.40459 | 153.11167 | 27 ft | 11 kts | 207° |
| 2026-05-06 22:31 | -27.40525 | 153.11129 | 27 ft | 12 kts | 208° |
| 2026-05-06 22:32 | -27.40595 | 153.11077 | 27 ft | 13 kts | 221° |
| 2026-05-06 22:32 | -27.40645 | 153.11014 | 27 ft | 9 kts | 236° |
| 2026-05-06 22:32 | -27.40674 | 153.10962 | 27 ft | 5 kts | 238° |
| 2026-05-06 22:32 | -27.40692 | 153.10928 | 27 ft | 6 kts | 243° |
| 2026-05-06 22:33 | -27.40690 | 153.10885 | 27 ft | 6 kts | 299° |
| 2026-05-06 22:33 | -27.40660 | 153.10859 | 27 ft | 1 kts | 329° |
| 2026-05-06 22:33 | -27.40657 | 153.10857 | 27 ft | 2 kts | 329° |
| 2026-05-06 22:33 | -27.40647 | 153.10850 | 27 ft | 0 kts | 329° |
| 2026-05-06 22:34 | -27.40641 | 153.10846 | 27 ft | 1 kts | 329° |
| 2026-05-06 22:34 | -27.40636 | 153.10843 | 27 ft | 1 kts | 329° |
| 2026-05-06 22:34 | -27.40631 | 153.10839 | 27 ft | 0 kts | 329° |